createdAt,value
2023-01-25T00:00:01.889Z,49.46
2023-01-25T00:02:28.590Z,50.29
2023-01-25T00:04:55.228Z,49.49
2023-01-25T00:07:21.801Z,49.81
2023-01-25T00:09:48.347Z,49.90
2023-01-25T00:12:14.943Z,52.45
2023-01-25T00:14:41.677Z,51.60
2023-01-25T00:17:08.299Z,51.16
2023-01-25T00:19:34.840Z,51.79
2023-01-25T00:22:01.385Z,52.05
2023-01-25T00:24:28.115Z,50.72
2023-01-25T00:26:54.685Z,51.73
2023-01-25T00:29:21.434Z,53.69
2023-01-25T00:31:58.965Z,51.81
2023-01-25T00:34:25.568Z,51.69
2023-01-25T00:37:01.167Z,50.73
2023-01-25T00:39:27.899Z,50.78
2023-01-25T00:41:55.149Z,52.12
2023-01-25T00:44:21.887Z,51.89
2023-01-25T00:46:48.933Z,50.89
2023-01-25T00:49:22.754Z,51.98
2023-01-25T00:51:49.865Z,50.73
2023-01-25T00:54:16.834Z,49.34
2023-01-25T00:56:43.402Z,50.87
2023-01-25T00:59:10.620Z,51.33
2023-01-25T01:01:37.344Z,52.29
2023-01-25T01:04:05.753Z,51.72
2023-01-25T01:06:35.647Z,51.28
2023-01-25T01:09:03.203Z,49.75
2023-01-25T01:11:31.492Z,51.38
2023-01-25T01:13:59.110Z,48.69
2023-01-25T01:16:26.468Z,48.05
2023-01-25T01:18:53.472Z,50.10
2023-01-25T01:21:20.293Z,51.40
2023-01-25T01:23:47.269Z,50.00
2023-01-25T01:26:15.414Z,50.87
2023-01-25T01:28:42.762Z,51.79
2023-01-25T01:31:12.187Z,52.50
2023-01-25T01:33:38.802Z,52.30
2023-01-25T01:36:13.322Z,52.68
2023-01-25T01:38:39.954Z,50.42
2023-01-25T01:41:07.138Z,52.58
2023-01-25T01:43:33.951Z,51.93
2023-01-25T01:46:02.445Z,51.22
2023-01-25T01:48:38.273Z,49.20
2023-01-25T01:51:16.779Z,50.45
2023-01-25T01:53:47.021Z,51.83
2023-01-25T01:56:18.164Z,50.80
2023-01-25T01:58:46.421Z,53.00
2023-01-25T02:01:13.324Z,52.05
2023-01-25T02:03:40.655Z,50.76
2023-01-25T02:06:14.650Z,51.15
2023-01-25T02:08:43.148Z,52.60
2023-01-25T02:11:12.203Z,51.71
2023-01-25T02:13:38.763Z,51.42
2023-01-25T02:16:07.037Z,50.89
2023-01-25T02:18:33.596Z,52.23
2023-01-25T02:21:01.877Z,52.50
2023-01-25T02:23:31.537Z,53.63
2023-01-25T02:26:01.282Z,52.10
2023-01-25T02:28:32.122Z,53.45
2023-01-25T02:30:58.644Z,52.97
2023-01-25T02:33:26.301Z,52.80
2023-01-25T02:35:58.691Z,51.67
2023-01-25T02:38:25.312Z,53.20
2023-01-25T02:41:02.057Z,52.62
2023-01-25T02:43:31.562Z,50.97
2023-01-25T02:46:02.331Z,54.14
2023-01-25T02:48:28.940Z,53.10
2023-01-25T02:50:55.470Z,52.50
2023-01-25T02:53:22.010Z,51.56
2023-01-25T02:55:48.533Z,51.32
2023-01-25T02:58:15.074Z,52.11
2023-01-25T03:00:42.642Z,51.08
2023-01-25T03:03:09.218Z,51.73
2023-01-25T03:05:36.125Z,52.02
2023-01-25T03:08:02.745Z,51.78
2023-01-25T03:10:29.281Z,52.96
2023-01-25T03:12:56.032Z,52.16
2023-01-25T03:15:22.612Z,53.01
2023-01-25T03:17:49.201Z,51.94
2023-01-25T03:20:15.876Z,51.38
2023-01-25T03:22:43.202Z,51.70
2023-01-25T03:25:10.567Z,54.05
2023-01-25T03:27:37.282Z,53.79
2023-01-25T03:30:04.375Z,52.09
2023-01-25T03:32:30.994Z,50.76
2023-01-25T03:34:59.073Z,50.47
2023-01-25T03:37:31.115Z,50.99
2023-01-25T03:39:58.272Z,50.14
2023-01-25T03:42:24.979Z,50.27
2023-01-25T03:44:51.517Z,49.21
2023-01-25T03:47:18.117Z,50.57
2023-01-25T03:49:44.707Z,49.24
2023-01-25T03:52:11.324Z,48.99
2023-01-25T03:54:37.869Z,49.50
2023-01-25T03:57:04.392Z,50.70
2023-01-25T03:59:31.026Z,48.17
2023-01-25T04:01:57.620Z,47.89
2023-01-25T04:04:24.257Z,48.39
2023-01-25T04:06:50.832Z,48.43
2023-01-25T04:09:17.600Z,50.05
2023-01-25T04:11:44.112Z,49.51
2023-01-25T04:14:11.166Z,51.01
2023-01-25T04:16:37.774Z,49.82
2023-01-25T04:19:04.459Z,49.53
2023-01-25T04:21:31.094Z,51.52
2023-01-25T04:23:57.761Z,49.71
2023-01-25T04:26:24.891Z,49.57
2023-01-25T04:28:51.386Z,48.46
2023-01-25T04:31:17.991Z,50.51
2023-01-25T04:33:44.599Z,49.86
2023-01-25T04:36:11.230Z,51.68
2023-01-25T04:38:37.785Z,51.26
2023-01-25T04:41:05.326Z,50.46
2023-01-25T04:43:31.937Z,49.92
2023-01-25T04:46:01.240Z,52.29
2023-01-25T04:48:27.795Z,52.53
2023-01-25T04:50:54.311Z,52.40
2023-01-25T04:53:20.971Z,54.78
2023-01-25T04:55:47.899Z,56.04
2023-01-25T04:58:14.928Z,55.03
2023-01-25T05:00:41.459Z,56.07
2023-01-25T05:03:08.047Z,56.51
2023-01-25T05:05:34.775Z,54.43
2023-01-25T05:08:01.267Z,55.98
2023-01-25T05:10:27.804Z,58.11
2023-01-25T05:12:54.251Z,58.65
2023-01-25T05:15:20.818Z,59.40
2023-01-25T05:17:47.335Z,58.98
2023-01-25T05:20:13.888Z,58.33
2023-01-25T05:22:40.517Z,59.68
2023-01-25T05:25:27.387Z,58.17
2023-01-25T05:27:53.959Z,57.14
2023-01-25T05:30:20.635Z,59.70
2023-01-25T05:32:48.050Z,62.72
2023-01-25T05:35:14.576Z,61.64
2023-01-25T05:37:41.191Z,63.60
2023-01-25T05:40:08.482Z,63.35
2023-01-25T05:42:35.071Z,64.12
2023-01-25T05:45:01.629Z,64.90
2023-01-25T05:47:28.255Z,63.24
2023-01-25T05:49:54.807Z,66.58
2023-01-25T05:52:21.312Z,67.11
2023-01-25T05:54:48.491Z,66.74
2023-01-25T05:57:15.755Z,63.21
2023-01-25T05:59:42.376Z,61.68
2023-01-25T06:02:08.940Z,64.83
2023-01-25T06:04:35.428Z,64.99
2023-01-25T06:07:01.974Z,62.72
2023-01-25T06:09:28.447Z,64.53
2023-01-25T06:11:55.026Z,65.85
2023-01-25T06:14:23.328Z,62.04
2023-01-25T06:16:50.042Z,64.14
2023-01-25T06:19:16.715Z,60.85
2023-01-25T06:21:43.319Z,62.57
2023-01-25T06:24:09.928Z,64.04
2023-01-25T06:26:36.610Z,63.95
2023-01-25T06:29:05.396Z,61.15
2023-01-25T06:31:31.980Z,58.82
2023-01-25T06:34:01.124Z,61.41
2023-01-25T06:36:27.849Z,63.44
2023-01-25T06:38:54.379Z,64.41
2023-01-25T06:41:21.525Z,64.82
2023-01-25T06:43:50.520Z,63.83
2023-01-25T06:46:17.126Z,62.47
2023-01-25T06:48:43.691Z,64.05
2023-01-25T06:51:11.987Z,64.67
2023-01-25T06:53:40.491Z,62.45
2023-01-25T06:56:12.021Z,64.63
2023-01-25T06:58:39.589Z,64.95
2023-01-25T07:01:23.001Z,62.18
2023-01-25T07:03:50.547Z,58.01
2023-01-25T07:06:17.820Z,58.01
2023-01-25T07:08:44.380Z,56.03
2023-01-25T07:11:13.868Z,56.14
2023-01-25T07:13:41.912Z,56.87
2023-01-25T07:16:11.676Z,57.39
2023-01-25T07:18:38.214Z,56.38
2023-01-25T07:21:06.443Z,57.92
2023-01-25T07:23:34.513Z,60.53
2023-01-25T07:26:01.358Z,58.31
2023-01-25T07:28:28.600Z,60.35
2023-01-25T07:30:55.153Z,63.07
2023-01-25T07:33:21.770Z,58.23
2023-01-25T07:35:50.964Z,60.98
2023-01-25T07:38:17.973Z,61.74
2023-01-25T07:40:44.574Z,60.96
2023-01-25T07:43:11.010Z,61.05
2023-01-25T07:45:37.608Z,59.78
2023-01-25T07:48:10.601Z,62.21
2023-01-25T07:50:37.153Z,60.70
2023-01-25T07:53:03.726Z,60.47
2023-01-25T07:55:30.765Z,60.71
2023-01-25T07:57:57.309Z,59.89
2023-01-25T08:00:25.026Z,60.75
2023-01-25T08:02:52.183Z,62.96
2023-01-25T08:05:19.350Z,62.09
2023-01-25T08:07:46.111Z,60.79
2023-01-25T08:10:12.709Z,60.77
2023-01-25T08:12:39.382Z,60.71
2023-01-25T08:15:06.474Z,60.02
2023-01-25T08:17:33.263Z,60.30
2023-01-25T08:20:01.663Z,62.20
2023-01-25T08:22:28.484Z,61.43
2023-01-25T08:24:55.165Z,60.11
2023-01-25T08:27:21.713Z,64.67
2023-01-25T08:29:50.454Z,64.78
2023-01-25T08:32:17.045Z,61.62
2023-01-25T08:34:43.559Z,60.45
2023-01-25T08:37:10.154Z,63.41
2023-01-25T08:39:36.679Z,63.04
2023-01-25T08:42:03.262Z,62.12
2023-01-25T08:44:29.814Z,58.48
2023-01-25T08:46:56.282Z,62.14
2023-01-25T08:49:22.877Z,62.45
2023-01-25T08:51:50.425Z,60.39
2023-01-25T08:54:16.983Z,60.77
2023-01-25T08:56:43.532Z,59.32
2023-01-25T08:59:13.830Z,57.63
2023-01-25T09:01:40.571Z,58.94
2023-01-25T09:04:07.151Z,62.91
2023-01-25T09:06:33.897Z,64.22
2023-01-25T09:09:00.546Z,62.86
2023-01-25T09:11:27.464Z,63.70
2023-01-25T09:13:54.055Z,64.43
2023-01-25T09:16:28.471Z,67.57
2023-01-25T09:18:57.710Z,66.22
2023-01-25T09:21:24.303Z,59.65
2023-01-25T09:24:05.649Z,59.39
2023-01-25T09:26:34.593Z,61.36
2023-01-25T09:29:01.283Z,62.33
2023-01-25T09:31:29.516Z,64.89
2023-01-25T09:33:57.245Z,63.77
2023-01-25T09:36:24.006Z,64.38
2023-01-25T09:38:50.569Z,64.08
2023-01-25T09:41:23.419Z,65.06
2023-01-25T09:44:04.561Z,62.53
2023-01-25T09:46:37.060Z,62.49
2023-01-25T09:49:07.632Z,64.24
2023-01-25T09:51:52.380Z,65.44
2023-01-25T09:54:20.886Z,65.77
2023-01-25T09:56:49.950Z,64.11
2023-01-25T09:59:21.387Z,68.24
2023-01-25T10:01:54.033Z,67.15
2023-01-25T10:04:30.477Z,67.77
2023-01-25T10:07:02.789Z,70.09
2023-01-25T10:09:48.214Z,70.74
2023-01-25T10:12:17.605Z,70.22
2023-01-25T10:14:44.221Z,72.13
2023-01-25T10:17:20.069Z,74.37
2023-01-25T10:19:49.792Z,73.17
2023-01-25T10:22:16.410Z,75.55
2023-01-25T10:24:54.849Z,73.56
2023-01-25T10:27:40.355Z,75.35
2023-01-25T10:30:25.943Z,71.80
2023-01-25T10:32:56.292Z,73.48
2023-01-25T10:35:35.441Z,70.84
2023-01-25T10:38:13.350Z,76.72
2023-01-25T10:40:50.345Z,77.57
2023-01-25T10:43:23.454Z,74.16
2023-01-25T10:45:50.494Z,73.80
2023-01-25T10:48:22.363Z,76.93
2023-01-25T10:50:51.810Z,76.47
2023-01-25T10:53:21.264Z,75.36
2023-01-25T10:56:23.203Z,75.54
2023-01-25T10:58:51.665Z,79.10
2023-01-25T11:01:27.645Z,78.23
2023-01-25T11:03:54.406Z,79.70
2023-01-25T11:06:47.105Z,74.09
2023-01-25T11:09:22.887Z,77.43
2023-01-25T11:11:56.362Z,79.95
2023-01-25T11:14:24.534Z,78.73
2023-01-25T11:16:51.165Z,81.00
2023-01-25T11:19:27.255Z,77.48
2023-01-25T11:21:55.207Z,80.62
2023-01-25T11:24:25.875Z,78.61
2023-01-25T11:27:11.307Z,81.70
2023-01-25T11:29:40.715Z,80.55
2023-01-25T11:32:22.670Z,84.49
2023-01-25T11:34:50.568Z,83.03
2023-01-25T11:37:26.514Z,79.98
2023-01-25T11:40:09.883Z,83.16
2023-01-25T11:42:58.510Z,81.70
2023-01-25T11:45:24.953Z,80.65
2023-01-25T11:47:51.464Z,80.95
2023-01-25T11:50:28.499Z,81.06
2023-01-25T11:53:13.921Z,80.60
2023-01-25T11:55:40.401Z,79.66
2023-01-25T11:58:19.334Z,80.31
2023-01-25T12:00:59.963Z,83.07
2023-01-25T12:03:29.352Z,83.31
2023-01-25T12:06:22.518Z,81.50
2023-01-25T12:08:49.034Z,78.63
2023-01-25T12:11:15.575Z,83.52
2023-01-25T12:13:55.126Z,82.95
2023-01-25T12:16:38.442Z,85.10
2023-01-25T12:19:13.937Z,82.18
2023-01-25T12:21:40.633Z,86.89
2023-01-25T12:24:33.355Z,85.40
2023-01-25T12:27:02.671Z,84.56
2023-01-25T12:29:55.780Z,83.41
2023-01-25T12:32:37.262Z,82.64
2023-01-25T12:35:12.662Z,82.51
2023-01-25T12:37:42.672Z,79.03
2023-01-25T12:40:38.651Z,78.41
2023-01-25T12:43:12.815Z,81.54
2023-01-25T12:45:41.701Z,79.62
2023-01-25T12:48:28.511Z,82.65
2023-01-25T12:50:57.044Z,81.81
2023-01-25T12:53:34.856Z,78.56
2023-01-25T12:56:02.145Z,80.30
2023-01-25T12:58:38.212Z,78.46
2023-01-25T13:01:07.804Z,83.05
2023-01-25T13:03:53.214Z,83.03
2023-01-25T13:06:37.333Z,82.28
2023-01-25T13:09:10.026Z,81.97
2023-01-25T13:11:39.639Z,80.01
2023-01-25T13:14:18.580Z,81.78
2023-01-25T13:16:50.138Z,87.78
2023-01-25T13:19:42.185Z,88.50
2023-01-25T13:22:10.804Z,88.82
2023-01-25T13:24:56.291Z,88.82
2023-01-25T13:27:30.443Z,88.94
2023-01-25T13:30:15.732Z,88.54
2023-01-25T13:32:45.281Z,86.57
2023-01-25T13:35:26.691Z,82.96
2023-01-25T13:38:04.880Z,83.76
2023-01-25T13:40:31.460Z,80.61
2023-01-25T13:43:00.328Z,80.96
2023-01-25T13:45:27.245Z,79.78
2023-01-25T13:48:04.050Z,78.55
2023-01-25T13:50:34.264Z,73.02
2023-01-25T13:53:06.002Z,76.68
2023-01-25T13:55:40.356Z,72.70
2023-01-25T13:58:30.197Z,72.71
2023-01-25T14:01:04.388Z,71.19
2023-01-25T14:03:37.404Z,70.95
2023-01-25T14:06:04.493Z,75.63
2023-01-25T14:08:32.223Z,70.52
2023-01-25T14:10:59.249Z,70.34
2023-01-25T14:13:25.966Z,66.22
2023-01-25T14:15:54.279Z,68.05
2023-01-25T14:18:21.768Z,71.06
2023-01-25T14:20:49.834Z,67.69
2023-01-25T14:23:23.704Z,67.73
2023-01-25T14:25:50.714Z,68.57
2023-01-25T14:28:18.123Z,68.82
2023-01-25T14:30:50.401Z,68.62
2023-01-25T14:33:17.189Z,66.13
2023-01-25T14:35:54.800Z,67.78
2023-01-25T14:38:24.622Z,69.59
2023-01-25T14:40:54.853Z,70.53
2023-01-25T14:43:23.008Z,70.23
2023-01-25T14:45:49.630Z,68.57
2023-01-25T14:48:35.136Z,73.14
2023-01-25T14:51:11.447Z,73.25
2023-01-25T14:53:40.579Z,71.49
2023-01-25T14:56:18.588Z,70.17
2023-01-25T14:58:45.345Z,70.54
2023-01-25T15:01:24.248Z,74.09
2023-01-25T15:03:50.917Z,71.97
2023-01-25T15:06:17.549Z,72.49
2023-01-25T15:08:44.097Z,74.94
2023-01-25T15:11:48.997Z,73.75
2023-01-25T15:14:18.253Z,76.12
2023-01-25T15:16:45.150Z,76.80
2023-01-25T15:19:22.568Z,79.24
2023-01-25T15:21:49.463Z,81.98
2023-01-25T15:24:16.702Z,82.02
2023-01-25T15:26:43.307Z,85.36
2023-01-25T15:29:13.746Z,88.16
2023-01-25T15:31:41.490Z,88.32
2023-01-25T15:34:15.407Z,89.12
2023-01-25T15:36:41.985Z,87.69
2023-01-25T15:39:14.080Z,89.31
2023-01-25T15:41:40.688Z,87.62
2023-01-25T15:44:07.679Z,89.39
2023-01-25T15:46:36.125Z,87.78
2023-01-25T15:49:04.386Z,87.03
2023-01-25T15:51:35.346Z,82.75
2023-01-25T15:54:02.297Z,81.26
2023-01-25T15:56:31.283Z,79.96
2023-01-25T15:58:59.908Z,74.33
2023-01-25T16:01:28.050Z,71.66
2023-01-25T16:03:58.706Z,72.49
2023-01-25T16:06:43.954Z,74.84
2023-01-25T16:09:16.615Z,72.30
2023-01-25T16:11:43.552Z,69.03
2023-01-25T16:14:10.240Z,71.33
2023-01-25T16:16:41.599Z,69.80
2023-01-25T16:19:13.212Z,72.97
2023-01-25T16:21:40.357Z,72.40
2023-01-25T16:24:07.556Z,74.48
2023-01-25T16:26:37.206Z,72.77
2023-01-25T16:29:03.784Z,71.47
2023-01-25T16:31:33.174Z,71.24
2023-01-25T16:34:00.777Z,75.73
2023-01-25T16:36:27.963Z,73.88
2023-01-25T16:38:54.633Z,71.59
2023-01-25T16:41:21.260Z,73.54
2023-01-25T16:43:49.103Z,75.21
2023-01-25T16:46:20.849Z,72.92
2023-01-25T16:48:48.550Z,72.39
2023-01-25T16:51:18.236Z,71.90
2023-01-25T16:53:45.762Z,73.79
2023-01-25T16:56:26.227Z,73.95
2023-01-25T16:58:53.895Z,74.11
2023-01-25T17:01:21.496Z,75.47
2023-01-25T17:03:48.900Z,72.68
2023-01-25T17:06:23.884Z,75.75
2023-01-25T17:08:50.630Z,77.64
2023-01-25T17:11:21.625Z,79.53
2023-01-25T17:13:52.503Z,78.64
2023-01-25T17:16:20.336Z,74.98
2023-01-25T17:18:47.502Z,75.71
2023-01-25T17:21:15.254Z,75.51
2023-01-25T17:23:42.710Z,76.79
2023-01-25T17:26:12.381Z,79.13
2023-01-25T17:28:38.963Z,79.40
2023-01-25T17:31:06.646Z,81.21
2023-01-25T17:33:33.539Z,81.88
2023-01-25T17:36:03.674Z,78.87
2023-01-25T17:38:30.216Z,79.32
2023-01-25T17:40:56.757Z,82.34
2023-01-25T17:43:23.555Z,83.19
2023-01-25T17:45:50.128Z,82.08
2023-01-25T17:48:16.657Z,80.77
2023-01-25T17:50:43.489Z,82.94
2023-01-25T17:53:10.111Z,83.34
2023-01-25T17:55:37.356Z,82.42
2023-01-25T17:58:04.037Z,83.30
2023-01-25T18:00:30.744Z,85.86
2023-01-25T18:02:58.419Z,86.46
2023-01-25T18:05:27.945Z,86.37
2023-01-25T18:07:54.455Z,88.07
2023-01-25T18:10:20.982Z,92.09
2023-01-25T18:13:03.580Z,88.71
2023-01-25T18:15:31.567Z,81.20
2023-01-25T18:17:58.420Z,90.58
2023-01-25T18:20:25.021Z,92.19
2023-01-25T18:22:52.080Z,93.43
2023-01-25T18:25:35.342Z,93.51
2023-01-25T18:28:01.986Z,94.05
2023-01-25T18:30:38.774Z,91.46
2023-01-25T18:33:05.716Z,101.13
2023-01-25T18:35:32.749Z,101.10
2023-01-25T18:37:59.691Z,101.10
2023-01-25T18:40:26.386Z,103.02
2023-01-25T18:42:53.054Z,100.03
2023-01-25T18:45:19.692Z,103.24
2023-01-25T18:47:46.853Z,104.01
2023-01-25T18:50:16.215Z,103.41
2023-01-25T18:52:43.463Z,106.65
2023-01-25T18:55:11.331Z,107.17
2023-01-25T18:57:38.722Z,100.49
2023-01-25T19:00:06.198Z,102.95
2023-01-25T19:02:32.835Z,102.55
2023-01-25T19:05:00.471Z,105.87
2023-01-25T19:07:27.269Z,106.23
2023-01-25T19:09:53.857Z,112.80
2023-01-25T19:12:20.514Z,105.85
2023-01-25T19:14:47.020Z,105.79
2023-01-25T19:17:13.684Z,110.13
2023-01-25T19:19:40.684Z,113.38
2023-01-25T19:22:07.429Z,115.17
2023-01-25T19:24:34.002Z,114.01
2023-01-25T19:27:00.781Z,116.81
2023-01-25T19:29:27.424Z,119.51
2023-01-25T19:31:54.254Z,117.33
2023-01-25T19:34:20.900Z,120.30
2023-01-25T19:36:50.046Z,123.72
2023-01-25T19:39:17.347Z,119.45
2023-01-25T19:41:43.895Z,123.05
2023-01-25T19:44:11.546Z,125.73
2023-01-25T19:46:38.213Z,126.22
2023-01-25T19:49:08.040Z,123.86
2023-01-25T19:51:36.742Z,125.78
2023-01-25T19:54:08.390Z,126.76
2023-01-25T19:56:36.628Z,124.11
2023-01-25T19:59:04.416Z,126.95
2023-01-25T20:01:31.101Z,125.79
2023-01-25T20:03:58.950Z,128.39
2023-01-25T20:06:26.251Z,129.33
2023-01-25T20:08:53.328Z,128.44
2023-01-25T20:11:21.784Z,128.31
2023-01-25T20:13:49.419Z,129.86
2023-01-25T20:16:18.683Z,127.87
2023-01-25T20:18:46.071Z,129.27
2023-01-25T20:21:20.606Z,128.46
2023-01-25T20:23:49.821Z,124.52
2023-01-25T20:26:21.989Z,130.12
2023-01-25T20:28:53.271Z,127.31
2023-01-25T20:31:27.530Z,127.10
2023-01-25T20:33:55.797Z,124.58
2023-01-25T20:36:23.169Z,126.05
2023-01-25T20:38:50.097Z,126.76
2023-01-25T20:41:18.275Z,125.08
2023-01-25T20:43:48.103Z,129.88
2023-01-25T20:46:15.862Z,125.95
2023-01-25T20:48:42.521Z,127.40
2023-01-25T20:51:10.682Z,121.40
2023-01-25T20:53:37.296Z,118.28
2023-01-25T20:56:03.914Z,116.96
2023-01-25T20:58:30.454Z,116.69
2023-01-25T21:00:57.144Z,121.52
2023-01-25T21:03:24.235Z,115.56
2023-01-25T21:05:51.452Z,112.14
2023-01-25T21:08:19.015Z,109.92
2023-01-25T21:10:56.997Z,115.50
2023-01-25T21:13:24.415Z,111.30
2023-01-25T21:16:23.610Z,102.31
2023-01-25T21:18:51.989Z,109.81
2023-01-25T21:21:20.228Z,104.05
2023-01-25T21:23:48.477Z,103.91
2023-01-25T21:26:16.701Z,106.07
2023-01-25T21:28:43.350Z,102.09
2023-01-25T21:31:23.964Z,101.07
2023-01-25T21:33:50.774Z,105.14
2023-01-25T21:36:17.947Z,102.63
2023-01-25T21:38:46.385Z,99.58
2023-01-25T21:41:14.576Z,106.75
2023-01-25T21:43:59.524Z,104.20
2023-01-25T21:46:27.250Z,102.45
2023-01-25T21:49:13.020Z,101.91
2023-01-25T21:51:47.018Z,99.48
2023-01-25T21:54:14.878Z,95.69
2023-01-25T21:56:41.846Z,97.44
2023-01-25T21:59:08.675Z,96.05
2023-01-25T22:01:35.438Z,95.13
2023-01-25T22:04:02.000Z,96.61
2023-01-25T22:06:28.965Z,95.15
2023-01-25T22:08:55.515Z,92.82
2023-01-25T22:11:22.312Z,93.76
2023-01-25T22:13:48.852Z,93.43
2023-01-25T22:16:15.436Z,99.03
2023-01-25T22:18:42.691Z,97.51
2023-01-25T22:21:20.089Z,94.76
2023-01-25T22:23:47.445Z,96.49
2023-01-25T22:26:16.279Z,94.30
2023-01-25T22:28:48.351Z,94.42
2023-01-25T22:31:16.302Z,91.32
2023-01-25T22:33:42.971Z,89.95
2023-01-25T22:36:11.287Z,84.37
2023-01-25T22:38:37.953Z,86.11
2023-01-25T22:41:05.365Z,81.75
2023-01-25T22:43:32.089Z,79.68
2023-01-25T22:45:58.658Z,81.52
2023-01-25T22:48:25.234Z,78.13
2023-01-25T22:50:51.784Z,79.52
2023-01-25T22:53:18.396Z,77.03
2023-01-25T22:55:44.947Z,73.91
2023-01-25T22:58:11.566Z,68.77
2023-01-25T23:00:38.161Z,73.11
2023-01-25T23:03:05.250Z,72.24
2023-01-25T23:05:31.850Z,69.13
2023-01-25T23:07:59.279Z,66.42
2023-01-25T23:10:25.875Z,69.47
2023-01-25T23:12:53.504Z,69.39
2023-01-25T23:15:20.103Z,65.89
2023-01-25T23:18:05.142Z,68.10
2023-01-25T23:20:31.698Z,69.87
2023-01-25T23:22:58.273Z,69.51
2023-01-25T23:25:24.946Z,68.38
2023-01-25T23:27:51.529Z,65.29
2023-01-25T23:30:18.356Z,62.25
2023-01-25T23:32:49.340Z,65.65
2023-01-25T23:35:19.892Z,66.81
2023-01-25T23:37:47.171Z,64.61
2023-01-25T23:40:14.819Z,63.50
2023-01-25T23:42:41.658Z,64.60
2023-01-25T23:45:08.917Z,62.19
2023-01-25T23:47:35.439Z,64.67
2023-01-25T23:50:02.171Z,62.58
2023-01-25T23:52:29.022Z,63.98
2023-01-25T23:54:55.589Z,65.48
2023-01-25T23:57:22.393Z,64.72
2023-01-25T23:59:49.064Z,63.89
